Time;durP1;ratioP1;P1;durP2;ratioP2;P2;SDS_P1;SDS_P2;PMS_P1;PMS_P2;Temp;Humidity;BMP_temperature;BMP_pressure;BME280_temperature;BME280_humidity;BME280_pressure;Samples;Min_cycle;Max_cycle;Signal;HPM_P1;HPM_P2
2022/07/11 11:10:54;;;;;;;;;;;20.10;64.90;;;;;;2043966;27;20919;-69
2022/07/11 11:11:52;;;;;;;;;;;20.10;65.30;;;;;;2043732;28;20135;-70
2022/07/11 11:13:08;;;;;;;;;;;20.10;65.30;;;;;;2044112;28;19904;-69
2022/07/11 11:14:22;;;;;;;4.70;1.90;;;20.10;65.10;;;;;;2043950;28;20331;-69
2022/07/11 11:15:45;;;;;;;10.95;2.00;;;20.10;65.20;;;;;;2043802;28;19907;-70
2022/07/11 11:16:43;;;;;;;;;;;20.10;65.20;;;;;;2043239;28;20452;-70
2022/07/11 11:17:42;;;;;;;;;;;20.10;65.00;;;;;;2043635;28;19930;-71
2022/07/11 11:18:43;;;;;;;;;;;20.10;64.90;;;;;;2044077;28;20310;-72
2022/07/11 11:19:48;;;;;;;;;;;20.20;65.10;;;;;;2044151;28;19908;-69
2022/07/11 11:20:46;;;;;;;;;;;20.20;65.00;;;;;;2044068;28;19908;-70
2022/07/11 11:22:01;;;;;;;;;;;20.20;65.00;;;;;;2044052;28;19975;-69
2022/07/11 11:23:09;;;;;;;;;;;20.20;65.00;;;;;;2043393;28;19934;-70
2022/07/11 11:24:08;;;;;;;;;;;20.30;65.00;;;;;;2043568;28;20327;-69
2022/07/11 11:25:09;;;;;;;;;;;20.30;64.90;;;;;;2044191;28;19915;-69
2022/07/11 11:26:12;;;;;;;;;;;20.30;64.80;;;;;;2044008;28;19908;-71
2022/07/11 11:27:15;;;;;;;;;;;20.30;64.80;;;;;;2044223;28;19918;-69
2022/07/11 11:28:19;;;;;;;;;;;20.30;64.60;;;;;;2050956;28;19912;-70
2022/07/11 11:29:21;;;;;;;;;;;20.30;64.50;;;;;;2052501;28;19920;-70
2022/07/11 11:30:20;;;;;;;;;;;20.40;64.60;;;;;;2052870;28;19923;-74
2022/07/11 11:31:18;;;;;;;;;;;20.30;64.40;;;;;;2051430;28;19912;-75
2022/07/11 11:32:17;;;;;;;;;;;20.30;64.40;;;;;;2046213;28;19961;-75
2022/07/11 11:33:16;;;;;;;;;;;20.30;64.00;;;;;;2045377;28;19954;-76
2022/07/11 11:34:14;;;;;;;;;;;20.30;64.50;;;;;;2045061;28;19908;-74
2022/07/11 11:35:16;;;;;;;;;;;20.30;64.50;;;;;;2044646;28;20362;-75
2022/07/11 11:36:16;;;;;;;;;;;20.30;64.40;;;;;;2044246;28;19957;-74
2022/07/11 11:37:15;;;;;;;;;;;20.30;64.40;;;;;;2044100;28;19927;-74
2022/07/11 11:38:13;;;;;;;;;;;20.30;64.40;;;;;;2044113;28;19919;-75
2022/07/11 11:39:20;;;;;;;;;;;20.30;64.30;;;;;;2044000;28;19915;-73
2022/07/11 11:40:19;;;;;;;;;;;20.30;64.10;;;;;;2044347;28;19915;-76
2022/07/11 11:41:25;;;;;;;;;;;20.40;64.00;;;;;;2044065;28;20388;-75
2022/07/11 11:42:23;;;;;;;;;;;20.40;63.90;;;;;;2044124;28;19966;-74
2022/07/11 11:43:23;;;;;;;;;;;20.30;63.60;;;;;;2044006;28;19912;-76
2022/07/11 11:44:21;;;;;;;;;;;20.30;63.70;;;;;;2044087;28;19916;-74
2022/07/11 11:45:21;;;;;;;;;;;20.30;63.40;;;;;;2043906;28;19908;-74
2022/07/11 11:46:27;;;;;;;;;;;20.30;63.40;;;;;;2043952;28;19946;-75
2022/07/11 11:47:28;;;;;;;;;;;20.30;63.30;;;;;;2043839;28;19931;-75
2022/07/11 11:48:30;;;;;;;;;;;20.30;63.20;;;;;;2044183;28;20359;-75
2022/07/11 11:49:40;;;;;;;;;;;20.30;63.00;;;;;;2044003;28;19908;-77
2022/07/11 11:50:38;;;;;;;;;;;20.40;63.40;;;;;;2044155;28;20007;-75
2022/07/11 11:51:38;;;;;;;;;;;20.50;61.60;;;;;;2043570;28;19908;-75
2022/07/11 11:52:37;;;;;;;;;;;;;;;;;;2043447;28;19999;-73
2022/07/11 11:53:36;;;;;;;;;;;20.90;92.40;;;;;;2043816;28;19908;-77
2022/07/11 11:54:39;;;;;;;;;;;20.80;88.10;;;;;;2043971;28;19908;-77
2022/07/11 11:55:37;;;;;;;;;;;20.70;90.50;;;;;;2041472;28;19915;-76
2022/07/11 11:56:36;;;;;;;;;;;20.60;88.20;;;;;;2027433;28;20360;-75
2022/07/11 11:57:34;;;;;;;;;;;20.50;86.60;;;;;;2027661;28;20351;-75
2022/07/11 11:58:33;;;;;;;;;;;20.50;87.30;;;;;;2027791;28;19913;-75
2022/07/11 11:59:31;;;;;;;;;;;20.40;61.70;;;;;;2027670;28;19909;-77
2022/07/11 12:00:31;;;;;;;;;;;20.40;68.10;;;;;;2027567;28;20037;-76
2022/07/11 12:01:31;;;;;;;;;;;20.50;75.60;;;;;;2027542;28;20371;-75
2022/07/11 12:02:30;;;;;;;;;;;20.30;61.90;;;;;;2027592;28;20276;-76
2022/07/11 12:03:45;;;;;;;;;;;20.30;62.10;;;;;;2027634;28;20015;-75
2022/07/11 12:04:44;;;;;;;;;;;20.30;61.80;;;;;;2026846;28;19916;-75
2022/07/11 12:05:52;;;;;;;;;;;20.20;63.70;;;;;;2026957;28;19951;-75
2022/07/11 12:06:50;;;;;;;;;;;20.30;66.90;;;;;;2027773;28;19955;-75
2022/07/11 12:07:49;;;;;;;;;;;20.30;73.10;;;;;;2027741;28;19908;-77
2022/07/11 12:08:47;;;;;;;;;;;20.30;73.80;;;;;;2027591;28;19912;-75
2022/07/11 12:09:55;;;;;;;;;;;20.40;77.70;;;;;;2027036;28;19984;-75
2022/07/11 12:10:54;;;;;;;;;;;20.30;78.90;;;;;;2026859;28;19925;-76
2022/07/11 12:12:43;;;;;;;;;;;20.30;79.10;;;;;;2027244;28;19969;-76
2022/07/11 12:13:11;;;;;;;;;;;20.20;83.00;;;;;;2027433;28;19916;-76
2022/07/11 12:14:10;;;;;;;;;;;20.30;83.50;;;;;;2027441;28;20003;-77
2022/07/11 12:16:56;;;;;;;;;;;20.20;84.00;;;;;;2023963;28;20275;-76
2022/07/11 12:17:59;;;;;;;;;;;20.20;87.90;;;;;;2027728;28;19909;-75
2022/07/11 12:18:59;;;;;;;;;;;20.30;89.00;;;;;;2027712;28;19943;-75
2022/07/11 12:19:58;;;;;;;;;;;20.20;89.30;;;;;;2027681;28;20363;-75
2022/07/11 12:21:09;;;;;;;3.20;1.97;;;20.20;89.40;;;;;;2027082;28;19929;-76
2022/07/11 12:22:07;;;;;;;5.90;1.97;;;20.30;64.80;;;;;;2021924;28;20196;-76
2022/07/11 12:23:26;;;;;;;4.90;2.03;;;20.20;62.40;;;;;;2021023;28;20394;-76
2022/07/11 12:24:29;;;;;;;4.80;1.90;;;20.20;62.80;;;;;;2020987;28;20271;-75
2022/07/11 12:25:27;;;;;;;2.50;2.30;;;20.30;63.50;;;;;;2021226;28;20414;-75
2022/07/11 12:26:32;;;;;;;2.70;2.37;;;20.30;63.70;;;;;;2021987;28;20405;-75
2022/07/11 12:27:31;;;;;;;4.00;2.03;;;20.40;63.50;;;;;;2022096;28;20172;-76
2022/07/11 12:28:30;;;;;;;;;;;20.50;63.20;;;;;;2022385;28;20598;-75
2022/07/11 12:29:28;;;;;;;;;;;;;;;;;;2022069;28;19905;-75
2022/07/11 12:30:27;;;;;;;;;;;;;;;;;;2021903;28;19912;-76
2022/07/11 12:31:27;;;;;;;;;;;20.40;84.90;;;;;;2022024;28;19912;-75
2022/07/11 12:32:26;;;;;;;;;;;20.50;88.20;;;;;;2021841;28;19951;-75
2022/07/11 12:33:24;;;;;;;;;;;20.40;86.60;;;;;;2022071;28;19905;-75
2022/07/11 12:34:41;;;;;;;;;;;20.40;90.40;;;;;;2022303;28;19912;-75
2022/07/11 12:35:56;;;;;;;;;;;20.40;91.80;;;;;;2022278;28;20267;-75
2022/07/11 12:37:21;;;;;;;;;;;20.40;92.10;;;;;;2021987;28;19904;-75
2022/07/11 12:38:21;;;;;;;;;;;;;;;;;;2018522;28;19936;-77
2022/07/11 12:39:20;;;;;;;;;;;;;;;;;;2022228;28;19909;-75
2022/07/11 12:40:19;;;;;;;;;;;;;;;;;;2021904;28;19924;-75
2022/07/11 12:41:18;;;;;;;;;;;;;;;;;;2022548;28;19904;-75
2022/07/11 12:42:21;;;;;;;;;;;20.30;83.10;;;;;;2022808;28;20310;-75
2022/07/11 12:44:57;;;;;;;;;;;20.40;83.20;;;;;;2022152;28;19904;-75
2022/07/11 12:45:07;;;;;;;;;;;20.40;80.80;;;;;;2022039;28;19905;-76
2022/07/11 12:46:06;;;;;;;;;;;20.30;79.50;;;;;;2021981;28;20004;-75
2022/07/11 12:47:06;;;;;;;;;;;20.30;80.10;;;;;;2022122;28;19995;-75
2022/07/11 12:48:05;;;;;;;;;;;20.20;79.90;;;;;;2021813;28;19959;-75
2022/07/11 12:49:05;;;;;;;;;;;20.30;79.80;;;;;;2021975;28;19932;-76
2022/07/11 12:50:10;;;;;;;;;;;20.30;80.10;;;;;;2021919;28;19909;-75
2022/07/11 12:51:09;;;;;;;;;;;20.30;81.00;;;;;;2021868;28;19913;-76
2022/07/11 12:52:07;;;;;;;;;;;20.30;82.00;;;;;;2021848;28;19967;-76
2022/07/11 12:53:06;;;;;;;;;;;20.30;82.70;;;;;;2021880;28;19904;-76
2022/07/11 12:54:05;;;;;;;;;;;20.30;83.30;;;;;;2022013;28;19905;-75
2022/07/11 12:55:04;;;;;;;;;;;20.30;84.20;;;;;;2022166;28;19912;-76
2022/07/11 12:56:03;;;;;;;;;;;20.30;84.60;;;;;;2021963;28;19908;-74
2022/07/11 12:57:01;;;;;;;;;;;20.30;84.20;;;;;;2021947;28;20065;-75
2022/07/11 12:58:13;;;;;;;;;;;20.40;84.60;;;;;;2021961;28;19909;-75
2022/07/11 12:59:18;;;;;;;;;;;20.30;85.50;;;;;;2021877;28;19958;-76
2022/07/11 13:00:19;;;;;;;;;;;20.40;87.30;;;;;;2021662;28;19962;-76
2022/07/11 13:01:17;;;;;;;;;;;20.40;89.00;;;;;;2021809;28;19905;-75
2022/07/11 13:02:16;;;;;;;;;;;20.40;71.20;;;;;;2021785;28;19911;-77
2022/07/11 13:03:15;;;;;;;;;;;20.30;71.90;;;;;;2021737;28;20009;-76
2022/07/11 13:04:28;;;;;;;;;;;20.30;72.30;;;;;;2021905;28;19959;-76
2022/07/11 13:05:27;;;;;;;;;;;20.30;72.20;;;;;;2021915;28;19911;-75
2022/07/11 13:09:00;;;;;;;;;;;20.30;71.50;;;;;;2022038;28;19944;-76
2022/07/11 13:09:58;;;;;;;;;;;20.30;72.40;;;;;;2021214;28;19904;-76
2022/07/11 13:11:00;;;;;;;;;;;20.30;72.50;;;;;;2021576;28;20003;-76
2022/07/11 13:11:59;;;;;;;;;;;20.30;72.70;;;;;;2021617;28;19911;-74
2022/07/11 13:12:57;;;;;;;;;;;20.40;72.80;;;;;;2021548;28;19908;-75
2022/07/11 13:13:56;;;;;;;;;;;20.30;74.20;;;;;;2021621;28;19912;-75
2022/07/11 13:15:10;;;;;;;;;;;20.30;75.00;;;;;;2021731;28;19905;-75
2022/07/11 13:16:09;;;;;;;;;;;20.30;75.30;;;;;;2021866;28;19905;-75
2022/07/11 13:17:08;;;;;;;;;;;20.30;72.50;;;;;;2021665;28;19927;-75
2022/07/11 13:18:08;;;;;;;;;;;20.20;71.60;;;;;;2021632;28;19905;-75
2022/07/11 13:19:06;;;;;;;;;;;20.20;71.10;;;;;;2021635;28;19909;-75
2022/07/11 13:20:06;;;;;;;;;;;20.20;70.80;;;;;;2021622;28;19905;-74
2022/07/11 13:21:07;;;;;;;;;;;20.30;71.00;;;;;;2021743;28;19904;-75
2022/07/11 13:22:05;;;;;;;;;;;20.30;71.30;;;;;;2021698;28;19975;-75
2022/07/11 13:23:04;;;;;;;;;;;20.30;71.20;;;;;;2021702;28;19951;-75
2022/07/11 13:24:03;;;;;;;;;;;20.30;70.80;;;;;;2021857;28;19909;-75
2022/07/11 13:25:02;;;;;;;;;;;20.30;70.80;;;;;;2021625;28;19944;-75
2022/07/11 13:26:01;;;;;;;;;;;20.40;70.90;;;;;;2021937;28;19905;-75
2022/07/11 13:27:00;;;;;;;;;;;20.40;70.90;;;;;;2022014;28;19908;-76
2022/07/11 13:27:58;;;;;;;;;;;20.40;71.20;;;;;;2021645;28;19905;-76
2022/07/11 13:28:57;;;;;;;;;;;20.40;71.20;;;;;;2021803;28;19992;-75
2022/07/11 13:29:56;;;;;;;;;;;20.40;70.90;;;;;;2021674;28;20004;-77
2022/07/11 13:30:55;;;;;;;;;;;20.40;70.90;;;;;;2021657;28;19908;-75
2022/07/11 13:31:53;;;;;;;;;;;20.50;71.20;;;;;;2021640;28;20348;-75
2022/07/11 13:32:52;;;;;;;;;;;20.40;71.20;;;;;;2021564;28;19952;-75
2022/07/11 13:33:56;;;;;;;;;;;20.40;71.40;;;;;;2020707;28;19905;-76
2022/07/11 13:34:54;;;;;;;;;;;20.40;71.20;;;;;;2021594;28;19905;-74
2022/07/11 13:35:55;;;;;;;;;;;20.40;70.90;;;;;;2021521;28;19955;-75
2022/07/11 13:36:54;;;;;;;;;;;20.40;71.00;;;;;;2021640;28;19905;-75
2022/07/11 13:37:53;;;;;;;;;;;20.40;71.40;;;;;;2021658;28;19995;-75
2022/07/11 13:38:52;;;;;;;;;;;20.40;71.40;;;;;;2021097;28;19917;-75
2022/07/11 13:39:50;;;;;;;;;;;20.40;72.10;;;;;;2020921;28;20379;-75
2022/07/11 13:40:49;;;;;;;;;;;20.40;71.70;;;;;;2021326;28;20003;-76
2022/07/11 13:41:47;;;;;;;;;;;20.40;72.00;;;;;;2021608;28;19995;-74
2022/07/11 13:42:48;;;;;;;;;;;20.40;72.00;;;;;;2021534;28;20358;-76
2022/07/11 13:43:47;;;;;;;;;;;20.40;72.20;;;;;;2021452;28;19911;-75
2022/07/11 13:44:45;;;;;;;;;;;20.40;72.50;;;;;;2021844;28;19912;-75
2022/07/11 13:45:47;;;;;;;;;;;20.30;71.90;;;;;;2021626;28;20413;-75
2022/07/11 13:46:45;;;;;;;;;;;20.30;72.00;;;;;;2021663;28;19909;-75
2022/07/11 13:47:44;;;;;;;;;;;20.30;72.00;;;;;;2021551;28;19905;-75
2022/07/11 13:48:43;;;;;;;;;;;20.40;72.00;;;;;;2021484;28;19955;-75
2022/07/11 13:49:42;;;;;;;;;;;20.40;72.40;;;;;;2021724;28;19912;-76
2022/07/11 13:50:40;;;;;;;;;;;20.40;72.30;;;;;;2021398;28;19908;-75
2022/07/11 13:51:39;;;;;;;;;;;20.50;72.00;;;;;;2021594;28;19905;-75
2022/07/11 13:52:37;;;;;;;;;;;20.50;72.50;;;;;;2021542;28;19987;-76
2022/07/11 13:53:37;;;;;;;;;;;20.40;72.50;;;;;;2021343;28;20351;-75
2022/07/11 13:54:35;;;;;;;;;;;20.50;72.40;;;;;;2021644;28;19963;-75
2022/07/11 13:55:34;;;;;;;;;;;20.50;72.30;;;;;;2021702;28;19931;-74
2022/07/11 13:56:32;;;;;;;;;;;20.50;72.50;;;;;;2021494;28;19995;-75
2022/07/11 13:57:31;;;;;;;;;;;20.50;72.70;;;;;;2021336;28;19948;-75
2022/07/11 13:58:29;;;;;;;;;;;20.40;72.80;;;;;;2021339;28;19920;-75
2022/07/11 13:59:28;;;;;;;;;;;20.40;73.00;;;;;;2021821;28;19916;-75
2022/07/11 14:00:29;;;;;;;;;;;20.40;72.90;;;;;;2029404;28;19904;-76
2022/07/11 14:01:27;;;;;;;;;;;20.40;73.30;;;;;;2020299;28;19915;-75
2022/07/11 14:02:26;;;;;;;;;;;20.50;73.40;;;;;;2020450;28;19951;-75
2022/07/11 14:03:25;;;;;;;;;;;20.40;73.80;;;;;;2029201;28;19904;-76
2022/07/11 14:04:23;;;;;;;;;;;20.40;73.80;;;;;;2029171;28;20279;-75
2022/07/11 14:05:22;;;;;;;;;;;20.40;74.30;;;;;;2029048;28;20370;-75
2022/07/11 14:06:22;;;;;;;;;;;20.50;74.50;;;;;;2029237;28;19912;-75
2022/07/11 14:07:20;;;;;;;;;;;20.40;75.10;;;;;;2028322;28;19933;-76
2022/07/11 14:08:19;;;;;;;;;;;20.50;75.40;;;;;;2028605;28;19904;-76
2022/07/11 14:09:17;;;;;;;;;;;20.50;75.40;;;;;;2029229;28;19904;-76
2022/07/11 14:10:16;;;;;;;;;;;20.50;75.90;;;;;;2033008;28;19970;-75
2022/07/11 14:11:14;;;;;;;;;;;20.50;76.20;;;;;;2033933;28;19900;-76
2022/07/11 14:12:13;;;;;;;;;;;20.50;76.80;;;;;;2033135;28;20264;-75
2022/07/11 14:13:12;;;;;;;;;;;20.40;76.90;;;;;;2032346;28;19976;-76
2022/07/11 14:14:12;;;;;;;;;;;20.40;77.90;;;;;;2031393;28;19905;-76
2022/07/11 14:15:10;;;;;;;;;;;20.50;78.10;;;;;;2032015;28;19908;-76
2022/07/11 14:16:09;;;;;;;;;;;20.40;78.50;;;;;;2034256;28;19911;-75
2022/07/11 14:17:07;;;;;;;;;;;20.50;79.30;;;;;;2035372;28;19987;-75
2022/07/11 14:18:06;;;;;;;;;;;20.40;79.80;;;;;;2032819;28;19905;-75
2022/07/11 14:19:07;;;;;;;;;;;20.50;78.60;;;;;;2031342;28;20332;-74
2022/07/11 14:20:07;;;;;;;;;;;20.50;79.50;;;;;;2031236;28;19904;-75
2022/07/11 14:21:05;;;;;;;;;;;20.40;78.90;;;;;;2030774;28;19904;-75
2022/07/11 14:22:07;;;;;;;;;;;20.50;79.30;;;;;;2031889;28;19904;-75
2022/07/11 14:23:05;;;;;;;;;;;20.50;78.80;;;;;;2029421;28;19905;-74
2022/07/11 14:24:04;;;;;;;;;;;20.40;78.60;;;;;;2029576;28;19904;-75
2022/07/11 14:25:03;;;;;;;;;;;20.50;78.80;;;;;;2029915;28;19908;-74
2022/07/11 14:26:05;;;;;;;;;;;20.50;78.90;;;;;;2029036;28;19908;-75
2022/07/11 14:27:04;;;;;;;;;;;20.40;78.80;;;;;;2021062;28;20260;-75
2022/07/11 14:28:03;;;;;;;;;;;20.50;78.80;;;;;;2029061;28;19950;-75
2022/07/11 14:29:02;;;;;;;;;;;20.50;78.60;;;;;;2029340;28;19905;-75
2022/07/11 14:30:00;;;;;;;;;;;20.50;78.70;;;;;;2029114;28;19911;-75
2022/07/11 14:30:59;;;;;;;;;;;20.50;78.80;;;;;;2029381;28;19908;-76
2022/07/11 14:31:57;;;;;;;;;;;20.50;79.20;;;;;;2029177;28;19950;-74
2022/07/11 14:32:56;;;;;;;;;;;20.50;79.20;;;;;;2029326;28;20328;-75
2022/07/11 14:33:55;;;;;;;;;;;20.50;79.60;;;;;;2029233;28;19959;-74
2022/07/11 14:34:54;;;;;;;;;;;20.50;80.40;;;;;;2021357;28;19940;-75
2022/07/11 14:35:52;;;;;;;;;;;20.50;81.20;;;;;;2013232;28;20271;-76
2022/07/11 14:36:51;;;;;;;;;;;20.50;82.20;;;;;;2013206;28;19905;-76
2022/07/11 14:37:49;;;;;;;;;;;20.50;83.60;;;;;;2013197;28;19909;-75
2022/07/11 14:38:48;;;;;;;;;;;20.50;84.70;;;;;;2013169;28;19911;-74
2022/07/11 14:39:47;;;;;;;;;;;20.50;85.90;;;;;;2013324;28;19966;-75
2022/07/11 14:40:45;;;;;;;;;;;20.50;86.90;;;;;;2013239;28;19912;-74
2022/07/11 14:41:44;;;;;;;;;;;20.50;87.80;;;;;;2013254;28;19905;-74
2022/07/11 14:42:43;;;;;;;;;;;20.50;88.40;;;;;;2013279;28;19908;-74
2022/07/11 14:43:41;;;;;;;;;;;20.60;89.00;;;;;;2013232;28;19913;-74
2022/07/11 14:44:40;;;;;;;;;;;20.60;87.90;;;;;;2020478;28;19913;-74
2022/07/11 14:45:38;;;;;;;;;;;20.50;87.90;;;;;;2020487;28;19929;-75
2022/07/11 14:46:37;;;;;;;;;;;20.60;91.00;;;;;;2013828;28;20383;-75
2022/07/11 14:47:35;;;;;;;;;;;20.70;92.40;;;;;;2012998;28;20445;-75
2022/07/11 14:48:34;;;;;;;;;;;20.80;91.10;;;;;;2013092;28;19905;-75
2022/07/11 14:49:32;;;;;;;;;;;20.70;90.50;;;;;;2012891;28;19905;-74
2022/07/11 14:50:33;;;;;;;;;;;20.70;90.50;;;;;;2012809;28;19908;-76
2022/07/11 14:51:32;;;;;;;;;;;20.80;90.00;;;;;;2013139;28;19936;-74
2022/07/11 14:52:31;;;;;;;;;;;;;;;;;;2013513;28;19906;-75
2022/07/11 14:53:30;;;;;;;;;;;;;;;;;;2013326;28;19928;-75
2022/07/11 14:54:29;;;;;;;;;;;;;;;;;;2013056;28;19912;-76
2022/07/11 14:55:27;;;;;;;;;;;20.50;92.00;;;;;;2013044;28;19916;-74
2022/07/11 14:56:26;;;;;;;;;;;20.90;90.80;;;;;;2013104;28;20380;-74
2022/07/11 14:57:25;;;;;;;;;;;21.10;90.80;;;;;;2004601;28;20255;-75
2022/07/11 14:58:23;;;;;;;;;;;21.00;90.20;;;;;;2005076;28;20023;-75
2022/07/11 14:59:22;;;;;;;;;;;21.00;89.70;;;;;;2005244;28;19909;-77
2022/07/11 15:00:21;;;;;;;;;;;21.00;90.00;;;;;;2005199;28;19906;-74
2022/07/11 15:01:20;;;;;;;;;;;21.10;89.60;;;;;;2005100;28;20003;-75
2022/07/11 15:03:37;;;;;;;;;;;21.10;88.60;;;;;;2005414;28;19913;-75
2022/07/11 15:03:38;;;;;;;;;;;21.20;89.10;;;;;;2005043;28;19906;-76
2022/07/11 15:04:36;;;;;;;;;;;21.30;90.60;;;;;;2003897;28;19952;-75
2022/07/11 15:05:35;;;;;;;;;;;21.30;90.20;;;;;;2005279;28;19945;-76
2022/07/11 15:13:02;;;;;;;;;;;21.20;82.60;;;;;;2005149;28;19905;-75
2022/07/11 15:14:01;;;;;;;;;;;21.20;82.90;;;;;;2005505;28;19949;-74
2022/07/11 15:14:59;;;;;;;;;;;21.20;83.30;;;;;;2005816;28;19906;-79
2022/07/11 15:15:57;;;;;;;;;;;21.10;87.20;;;;;;2020492;28;20293;-75
2022/07/11 15:16:56;;;;;;;;;;;21.10;91.80;;;;;;2012573;28;19905;-74
2022/07/11 15:17:59;;;;;;;;;;;21.00;91.20;;;;;;2005496;28;19905;-78
2022/07/11 15:18:57;;;;;;;;;;;;;;;;;;2005820;28;19905;-77
2022/07/11 15:19:57;;;;;;;;;;;;;;;;;;2005341;28;19905;-77
2022/07/11 15:20:55;;;;;;;;;;;;;;;;;;2005384;28;19933;-74
2022/07/11 15:21:54;;;;;;;;;;;;;;;;;;2005210;28;20012;-77
2022/07/11 15:22:53;;;;;;;;;;;;;;;;;;2005489;28;19945;-76
2022/07/11 15:23:52;;;;;;;;;;;;;;;;;;2005671;28;20276;-76
2022/07/11 15:24:51;;;;;;;;;;;;;;;;;;2005610;28;20384;-80
2022/07/11 15:25:50;;;;;;;;;;;;;;;;;;2004887;28;20000;-78
2022/07/11 15:26:49;;;;;;;;;;;;;;;;;;2004912;28;20257;-76
2022/07/11 15:27:48;;;;;;;;;;;;;;;;;;2005437;28;19947;-74
2022/07/11 15:28:47;;;;;;;;;;;;;;;;;;2005432;28;20375;-77
2022/07/11 15:29:46;;;;;;;;;;;;;;;;;;2005566;28;20261;-76
2022/07/11 15:30:46;;;;;;;;;;;;;;;;;;2005235;28;19910;-75
2022/07/11 15:31:47;;;;;;;;;;;;;;;;;;2005551;28;19905;-74
2022/07/11 15:32:46;;;;;;;;;;;;;;;;;;2005311;28;19905;-75
2022/07/11 15:33:45;;;;;;;;;;;;;;;;;;2005103;28;19949;-77
2022/07/11 15:34:44;;;;;;;;;;;;;;;;;;2005226;28;19997;-76
2022/07/11 15:35:43;;;;;;;;;;;;;;;;;;2005667;28;19912;-78
2022/07/11 15:36:42;;;;;;;;;;;;;;;;;;2004975;28;20377;-78
2022/07/11 15:37:42;;;;;;;;;;;;;;;;;;2004784;28;19906;-76
2022/07/11 15:38:44;;;;;;;;;;;;;;;;;;2005521;28;20340;-80
2022/07/11 15:39:43;;;;;;;;;;;;;;;;;;2005513;28;20349;-82
2022/07/11 15:40:42;;;;;;;;;;;;;;;;;;2005288;28;19928;-78
2022/07/11 15:41:42;;;;;;;;;;;;;;;;;;2005397;28;19906;-80
2022/07/11 15:42:41;;;;;;;;;;;;;;;;;;2005637;28;19912;-78
2022/07/11 15:43:40;;;;;;;;;;;;;;;;;;2005482;28;19905;-78
2022/07/11 15:44:39;;;;;;;;;;;;;;;;;;2005219;28;19905;-79
2022/07/11 15:45:38;;;;;;;;;;;;;;;;;;2005510;28;19951;-77
2022/07/11 15:46:37;;;;;;;;;;;;;;;;;;2005628;28;19911;-77
2022/07/11 15:47:35;;;;;;;;;;;;;;;;;;2004472;28;20258;-81
2022/07/11 15:48:35;;;;;;;;;;;;;;;;;;2004965;28;20345;-78
2022/07/11 15:49:35;;;;;;;;;;;;;;;;;;2004527;28;19909;-82
2022/07/11 15:50:34;;;;;;;;;;;;;;;;;;2004694;28;20005;-76
2022/07/11 15:51:34;;;;;;;;;;;;;;;;;;2005352;28;20380;-77
2022/07/11 15:52:33;;;;;;;;;;;;;;;;;;2004848;28;19988;-81
2022/07/11 15:53:32;;;;;;;;;;;;;;;;;;2004826;28;19949;-79
2022/07/11 15:54:33;;;;;;;;;;;;;;;;;;2005522;28;19928;-79
2022/07/11 15:55:32;;;;;;;;;;;;;;;;;;2005410;28;19905;-81
2022/07/11 15:56:31;;;;;;;;;;;;;;;;;;2005468;28;19906;-80
2022/07/11 15:57:30;;;;;;;;;;;;;;;;;;2006531;28;19905;-77
2022/07/11 15:58:29;;;;;;;;;;;;;;;;;;2006690;28;19905;-77
2022/07/11 15:59:28;;;;;;;;;;;;;;;;;;2006767;28;19905;-76
2022/07/11 16:00:27;;;;;;;;;;;;;;;;;;2006715;28;19912;-77
2022/07/11 16:01:31;;;;;;;;;;;;;;;;;;2006752;28;19905;-79
2022/07/11 16:02:31;;;;;;;;;;;;;;;;;;2006892;28;19912;-75
2022/07/11 16:03:30;;;;;;;;;;;;;;;;;;2006882;28;19905;-77
2022/07/11 16:04:29;;;;;;;;;;;;;;;;;;2007155;28;20003;-79
2022/07/11 16:05:28;;;;;;;;;;;;;;;;;;2007236;28;19913;-77
2022/07/11 16:06:27;;;;;;;;;;;;;;;;;;2006842;28;19906;-77
2022/07/11 16:07:26;;;;;;;;;;;;;;;;;;2006774;28;19912;-76
2022/07/11 16:08:25;;;;;;;;;;;;;;;;;;2007209;28;20345;-78
2022/07/11 16:09:24;;;;;;;;;;;;;;;;;;2007586;28;19909;-78
2022/07/11 16:10:23;;;;;;;;;;;;;;;;;;2006372;28;19913;-78
2022/07/11 16:11:22;;;;;;;;;;;;;;;;;;2006475;28;19928;-78
2022/07/11 16:12:21;;;;;;;;;;;;;;;;;;2006729;28;19905;-78
2022/07/11 16:13:20;;;;;;;;;;;;;;;;;;2006529;28;19905;-75
2022/07/11 16:14:19;;;;;;;;;;;;;;;;;;2006675;28;20357;-78
2022/07/11 16:15:17;;;;;;;;;;;;;;;;;;2006471;28;19913;-77
2022/07/11 16:16:17;;;;;;;;;;;;;;;;;;2006386;28;19944;-75
2022/07/11 16:17:16;;;;;;;;;;;;;;;;;;2006604;28;19905;-78
2022/07/11 16:18:14;;;;;;;;;;;;;;;;;;2006662;28;19912;-80
2022/07/11 16:19:15;;;;;;;;;;;;;;;;;;2006807;28;19909;-79
2022/07/11 16:20:15;;;;;;;;;;;;;;;;;;2006581;28;19909;-78
2022/07/11 16:21:14;;;;;;;;;;;;;;;;;;2005821;28;20004;-79
2022/07/11 16:22:13;;;;;;;;;;;;;;;;;;2005868;28;19906;-77
2022/07/11 16:23:12;;;;;;;;;;;;;;;;;;2006485;28;19906;-76
2022/07/11 16:24:11;;;;;;;;;;;;;;;;;;2006685;28;20341;-77
2022/07/11 16:25:12;;;;;;;;;;;;;;;;;;2006633;28;19933;-76
2022/07/11 16:26:11;;;;;;;;;;;;;;;;;;2006621;28;19913;-76
2022/07/11 16:27:09;;;;;;;;;;;;;;;;;;2006471;28;20338;-75
2022/07/11 16:28:09;;;;;;;;;;;;;;;;;;2006613;28;19931;-77
2022/07/11 16:29:08;;;;;;;;;;;;;;;;;;2006730;28;19905;-76
2022/07/11 16:30:07;;;;;;;;;;;;;;;;;;2006071;28;19906;-76
2022/07/11 16:31:07;;;;;;;;;;;;;;;;;;2005949;28;20317;-76
2022/07/11 16:32:05;;;;;;;;;;;;;;;;;;2005890;28;19977;-76
2022/07/11 16:33:04;;;;;;;;;;;;;;;;;;2005960;28;20325;-77
2022/07/11 16:34:03;;;;;;;;;;;;;;;;;;2006281;28;20349;-76
2022/07/11 16:35:03;;;;;;;;;;;;;;;;;;2006679;28;19905;-76
2022/07/11 16:36:02;;;;;;;;;;;;;;;;;;2006432;28;19999;-77
2022/07/11 16:37:01;;;;;;;;;;;;;;;;;;2006584;28;19906;-79
2022/07/11 16:38:00;;;;;;;;;;;;;;;;;;2006455;28;19912;-77
2022/07/11 16:44:09;;;;;;;;;;;;;;;;;;2006241;28;19905;-76
2022/07/11 16:45:08;;;;;;;;;;;;;;;;;;2006510;28;20355;-75
2022/07/11 16:46:08;;;;;;;;;;;;;;;;;;2006394;28;19956;-75
2022/07/11 16:47:07;;;;;;;;;;;;;;;;;;2006365;28;19912;-75
2022/07/11 16:48:07;;;;;;;;;;;;;;;;;;2006464;28;20010;-76
2022/07/11 16:49:06;;;;;;;;;;;;;;;;;;2006822;28;20000;-76
2022/07/11 16:50:05;;;;;;;;;;;;;;;;;;2006383;28;20332;-77
2022/07/11 16:51:04;;;;;;;;;;;;;;;;;;2006438;28;19910;-76
2022/07/11 16:52:03;;;;;;;;;;;;;;;;;;2006363;28;19959;-76
2022/07/11 16:53:02;;;;;;;;;;;;;;;;;;2006186;28;20479;-76
2022/07/11 16:54:03;;;;;;;;;;;;;;;;;;2006122;28;19944;-77
2022/07/11 16:55:02;;;;;;;;;;;;;;;;;;2006363;28;19963;-77
2022/07/11 16:56:01;;;;;;;;;;;20.90;64.70;;;;;;2008786;28;19909;-75
2022/07/11 16:56:59;;;;;;;;;;;21.00;65.30;;;;;;2023705;28;20406;-75
2022/07/11 16:57:59;;;;;;;;;;;20.90;64.60;;;;;;2015392;28;19942;-76
2022/07/11 16:58:58;;;;;;;;;;;20.90;64.80;;;;;;2010911;28;19999;-76
2022/07/11 16:59:58;;;;;;;;;;;20.80;64.70;;;;;;2005581;28;19910;-76
2022/07/11 17:00:57;;;;;;;;;;;20.80;66.20;;;;;;2013771;28;19910;-77
2022/07/11 17:01:56;;;;;;;;;;;20.80;66.00;;;;;;2022032;28;19893;-77
2022/07/11 17:02:54;;;;;;;;;;;20.80;65.20;;;;;;2008681;28;19905;-76
2022/07/11 17:03:52;;;;;;;;;;;20.80;65.00;;;;;;2008655;28;19992;-77
2022/07/11 17:04:51;;;;;;;;;;;20.80;65.90;;;;;;2007502;28;20436;-76
2022/07/11 17:05:50;;;;;;;;;;;20.80;66.70;;;;;;2021893;28;19928;-76
2022/07/11 17:06:49;;;;;;;;;;;20.80;65.50;;;;;;2022027;28;19970;-76
2022/07/11 17:09:06;;;;;;;;;;;20.80;65.30;;;;;;2006688;28;20000;-75
2022/07/11 17:10:05;;;;;;;;;;;20.70;65.20;;;;;;2013815;28;19916;-76
2022/07/11 17:11:05;;;;;;;;;;;20.70;65.00;;;;;;2013699;28;19909;-78
2022/07/11 17:12:04;;;;;;;;;;;20.70;65.20;;;;;;2006261;28;19905;-76
2022/07/11 17:13:03;;;;;;;;;;;20.70;65.30;;;;;;2006221;28;19988;-77
2022/07/11 17:14:02;;;;;;;;;;;20.70;65.30;;;;;;2006105;28;19905;-78
2022/07/11 17:15:01;;;;;;;;;;;20.70;65.30;;;;;;2006105;28;19905;-78
2022/07/11 17:15:59;;;;;;;;;;;20.70;65.30;;;;;;2005996;28;19910;-76
2022/07/11 17:16:58;;;;;;;;;;;20.70;66.40;;;;;;2006114;28;19912;-77
2022/07/11 17:17:57;;;;;;;;;;;20.70;66.10;;;;;;2005993;28;19906;-76
2022/07/11 17:18:55;;;;;;;;;;;20.70;65.70;;;;;;2012997;28;20424;-76
2022/07/11 17:19:54;;;;;;;;;;;20.70;65.70;;;;;;2013501;28;19951;-77
2022/07/11 17:20:54;;;;;;;;;;;20.70;66.60;;;;;;2006225;28;19912;-77
2022/07/11 17:21:52;;;;;;;;;;;20.70;66.40;;;;;;2012948;28;19982;-76
2022/07/11 17:22:51;;;;;;;;;;;20.70;65.70;;;;;;2021318;28;19905;-76
2022/07/11 17:23:51;;;;;;;;;;;20.70;65.80;;;;;;2021381;28;19912;-76
2022/07/11 17:24:49;;;;;;;;;;;20.70;65.90;;;;;;2006495;28;19911;-77
2022/07/11 17:25:48;;;;;;;;;;;20.70;66.90;;;;;;2006057;28;19913;-77
2022/07/11 17:26:46;;;;;;;;;;;20.70;65.80;;;;;;2005980;28;19954;-76
2022/07/11 17:27:45;;;;;;;;;;;20.70;65.70;;;;;;2006032;28;20009;-76
2022/07/11 17:28:44;;;;;;;;;;;20.70;65.70;;;;;;2005815;28;20091;-77
2022/07/11 17:29:42;;;;;;;;;;;20.70;65.70;;;;;;2005918;28;20003;-77
2022/07/11 17:30:41;;;;;;;;;;;20.70;65.70;;;;;;2005132;28;19940;-76
2022/07/11 17:31:45;;;;;;;;;;;20.70;65.80;;;;;;2004755;28;20357;-76